Time;durP1;ratioP1;P1;durP2;ratioP2;P2;SDS_P1;SDS_P2;PMS_P1;PMS_P2;Temp;Humidity;BMP_temperature;BMP_pressure;BME280_temperature;BME280_humidity;BME280_pressure;Samples;Min_cycle;Max_cycle;Signal;HPM_P1;HPM_P2
2023/08/16 00:10:57;;;;;;;31.90;22.40;;;13.40;99.90;;;;;;5021549;28;20052;-64
2023/08/16 00:13:23;;;;;;;31.63;23.35;;;13.50;99.90;;;;;;5036788;28;20435;-65
2023/08/16 00:15:48;;;;;;;36.55;25.35;;;13.50;99.90;;;;;;5020216;28;20045;-64
2023/08/16 00:18:14;;;;;;;28.83;22.52;;;13.40;99.90;;;;;;5035517;28;20145;-64
2023/08/16 00:20:40;;;;;;;28.20;21.85;;;13.40;99.90;;;;;;5036365;28;20041;-64
2023/08/16 00:23:05;;;;;;;34.95;24.67;;;13.40;99.90;;;;;;5019336;28;20048;-65
2023/08/16 00:25:31;;;;;;;30.20;24.05;;;13.50;99.90;;;;;;5018448;28;20706;-65
2023/08/16 00:27:57;;;;;;;35.10;26.75;;;13.50;99.90;;;;;;5035412;28;20553;-65
2023/08/16 00:30:22;;;;;;;36.45;25.02;;;13.50;99.90;;;;;;5036018;28;20609;-66
2023/08/16 00:32:48;;;;;;;39.55;26.52;;;13.50;99.90;;;;;;5019294;28;20059;-63
2023/08/16 00:35:14;;;;;;;44.30;27.58;;;13.50;99.90;;;;;;5032148;28;20123;-63
2023/08/16 00:37:39;;;;;;;39.08;27.27;;;13.50;99.90;;;;;;5031736;28;20044;-64
2023/08/16 00:40:06;;;;;;;33.38;24.60;;;13.50;99.90;;;;;;5015864;28;20044;-64
2023/08/16 00:42:31;;;;;;;33.22;24.58;;;13.60;99.90;;;;;;5015087;28;20494;-64
2023/08/16 00:44:57;;;;;;;36.83;26.52;;;13.50;99.90;;;;;;5032929;28;20107;-64
2023/08/16 00:47:23;;;;;;;32.35;23.90;;;13.50;99.90;;;;;;5015568;28;20057;-65
2023/08/16 00:49:50;;;;;;;30.20;21.85;;;13.50;99.90;;;;;;4998375;28;20786;-64
2023/08/16 00:52:16;;;;;;;28.83;21.42;;;13.50;99.90;;;;;;5015628;28;20409;-65
2023/08/16 00:54:42;;;;;;;24.50;21.55;;;13.50;99.90;;;;;;5014429;28;20123;-63
2023/08/16 00:57:08;;;;;;;25.70;21.38;;;13.40;99.90;;;;;;5015448;28;20041;-64
2023/08/16 00:59:33;;;;;;;31.02;21.98;;;13.40;99.90;;;;;;5032826;28;20045;-65
2023/08/16 01:01:59;;;;;;;28.00;21.85;;;13.50;99.90;;;;;;5032661;28;20041;-65
2023/08/16 01:04:25;;;;;;;34.30;23.98;;;13.50;99.90;;;;;;5015281;28;20135;-65
2023/08/16 01:06:57;;;;;;;28.25;22.17;;;13.50;99.90;;;;;;4998929;28;20643;-65
2023/08/16 01:09:24;;;;;;;32.42;24.27;;;13.50;99.90;;;;;;5031108;28;20060;-65
2023/08/16 01:12:02;;;;;;;36.08;23.35;;;13.40;99.90;;;;;;5031189;28;20053;-62
2023/08/16 01:14:40;;;;;;;29.13;24.77;;;13.60;99.90;;;;;;5031533;28;20079;-65
2023/08/16 01:17:06;;;;;;;34.13;24.77;;;13.60;99.90;;;;;;4999764;28;20045;-65
2023/08/16 01:19:33;;;;;;;34.67;23.85;;;13.70;99.90;;;;;;5031622;28;20596;-64
2023/08/16 01:22:25;;;;;;;35.00;25.75;;;13.70;99.90;;;;;;5031134;28;20044;-63
2023/08/16 01:25:08;;;;;;;37.25;26.40;;;13.60;99.90;;;;;;5010129;28;20149;-64
2023/08/16 01:27:35;;;;;;;41.42;27.42;;;13.60;99.90;;;;;;5031633;28;20052;-64
2023/08/16 01:30:07;;;;;;;41.28;27.65;;;13.60;99.90;;;;;;4998833;28;20041;-64
2023/08/16 01:32:32;;;;;;;39.20;26.98;;;13.60;99.90;;;;;;5015414;28;20557;-64
2023/08/16 01:34:58;;;;;;;42.20;27.67;;;13.50;99.90;;;;;;5031275;28;20049;-64
2023/08/16 01:37:25;;;;;;;36.58;26.27;;;13.50;99.90;;;;;;5030618;28;20037;-63
2023/08/16 01:39:52;;;;;;;40.03;26.88;;;13.50;99.90;;;;;;4999433;28;20454;-63
2023/08/16 01:42:20;;;;;;;38.08;27.35;;;13.50;99.90;;;;;;5014690;28;20080;-63
2023/08/16 01:44:48;;;;;;;35.25;26.35;;;13.50;99.90;;;;;;5014463;28;20098;-65
2023/08/16 01:47:15;;;;;;;35.67;26.38;;;13.40;99.90;;;;;;5031041;28;20039;-65
2023/08/16 01:49:42;;;;;;;36.90;27.23;;;13.60;99.90;;;;;;5030749;28;20745;-64
2023/08/16 01:52:08;;;;;;;40.17;26.80;;;13.50;99.90;;;;;;5014194;28;20124;-65
2023/08/16 01:54:34;;;;;;;35.63;26.05;;;13.50;99.90;;;;;;5013717;28;20755;-64
2023/08/16 01:56:59;;;;;;;40.70;27.10;;;13.40;99.90;;;;;;4982592;28;20048;-65
2023/08/16 01:59:25;;;;;;;40.30;27.25;;;13.40;99.90;;;;;;4996663;28;20045;-64
2023/08/16 02:01:51;;;;;;;39.65;29.23;;;13.50;99.90;;;;;;5030457;28;20036;-64
2023/08/16 02:04:16;;;;;;;37.67;27.80;;;13.50;99.90;;;;;;5030972;28;20553;-64
2023/08/16 02:06:42;;;;;;;44.25;27.35;;;13.40;99.90;;;;;;5013870;28;20478;-64
2023/08/16 02:09:08;;;;;;;33.88;26.15;;;13.30;99.90;;;;;;5030894;28;20071;-64
2023/08/16 02:11:34;;;;;;;37.67;26.70;;;13.50;99.90;;;;;;5014489;28;20420;-64
2023/08/16 02:13:59;;;;;;;41.30;27.13;;;13.40;99.90;;;;;;5015386;28;20076;-65
2023/08/16 02:16:25;;;;;;;39.35;28.00;;;13.40;99.90;;;;;;5014057;28;20044;-65
2023/08/16 02:18:52;;;;;;;40.25;27.13;;;13.40;99.90;;;;;;4997978;28;20855;-66
2023/08/16 02:21:18;;;;;;;46.15;30.85;;;13.50;99.90;;;;;;5030377;28;20051;-65
2023/08/16 02:23:43;;;;;;;48.40;30.60;;;13.40;99.90;;;;;;5014330;28;20041;-63
2023/08/16 02:26:09;;;;;;;44.10;29.20;;;13.40;99.90;;;;;;5014582;28;20400;-64
2023/08/16 02:28:35;;;;;;;44.95;28.13;;;13.30;99.90;;;;;;5030840;28;20041;-64
2023/08/16 02:31:05;;;;;;;43.05;27.45;;;13.40;99.90;;;;;;5014271;28;20303;-64
2023/08/16 02:33:31;;;;;;;32.25;26.27;;;13.20;99.90;;;;;;5030554;28;20321;-66
2023/08/16 02:35:58;;;;;;;39.00;27.88;;;13.30;99.90;;;;;;5030891;28;20120;-64
2023/08/16 02:38:24;;;;;;;40.15;27.58;;;13.20;99.90;;;;;;5030693;28;20052;-63
2023/08/16 02:40:50;;;;;;;34.25;26.15;;;13.30;99.90;;;;;;4997852;28;20450;-63
2023/08/16 02:43:16;;;;;;;42.13;29.77;;;13.30;99.90;;;;;;5030594;28;20049;-65
2023/08/16 02:45:43;;;;;;;34.78;27.35;;;13.30;99.90;;;;;;5030934;28;20528;-63
2023/08/16 02:48:09;;;;;;;34.85;25.60;;;13.30;99.90;;;;;;5013069;28;20422;-63
2023/08/16 02:50:35;;;;;;;37.08;26.70;;;13.10;99.90;;;;;;5013154;28;20210;-64
2023/08/16 02:53:00;;;;;;;33.47;25.73;;;13.10;99.90;;;;;;5013372;28;20029;-64
2023/08/16 02:55:26;;;;;;;34.90;25.85;;;13.20;99.90;;;;;;5014524;28;20048;-64
2023/08/16 02:57:52;;;;;;;37.72;26.17;;;13.20;99.90;;;;;;5030849;28;20222;-66
2023/08/16 03:00:18;;;;;;;40.25;26.35;;;13.20;99.90;;;;;;5013497;28;20121;-64
2023/08/16 03:02:44;;;;;;;40.17;26.45;;;13.30;99.90;;;;;;5013781;28;20037;-64
2023/08/16 03:05:10;;;;;;;38.90;27.23;;;13.10;99.90;;;;;;5029800;28;20715;-65
2023/08/16 03:07:36;;;;;;;38.42;27.52;;;13.30;99.90;;;;;;5030486;28;20056;-65
2023/08/16 03:10:02;;;;;;;36.47;25.67;;;13.20;99.90;;;;;;5014170;28;20565;-65
2023/08/16 03:12:28;;;;;;;36.30;26.48;;;13.30;99.90;;;;;;5034053;28;20515;-64
2023/08/16 03:14:53;;;;;;;36.97;23.67;;;13.20;99.90;;;;;;5033011;28;20051;-65
2023/08/16 03:17:19;;;;;;;36.40;25.27;;;13.10;99.90;;;;;;5032264;28;20414;-64
2023/08/16 03:19:45;;;;;;;39.63;27.67;;;13.10;99.90;;;;;;5033779;28;20052;-65
2023/08/16 03:22:10;;;;;;;34.92;25.98;;;13.20;99.90;;;;;;5033177;28;20165;-64
2023/08/16 03:24:36;;;;;;;35.60;25.08;;;13.00;99.90;;;;;;5035352;28;20051;-64
2023/08/16 03:27:02;;;;;;;42.60;27.95;;;13.10;99.90;;;;;;5034188;28;20047;-65
2023/08/16 03:29:28;;;;;;;33.33;26.17;;;13.10;99.90;;;;;;5017215;28;20131;-64
2023/08/16 03:31:55;;;;;;;33.72;24.08;;;13.10;99.90;;;;;;5033763;28;20573;-64
2023/08/16 03:34:22;;;;;;;41.75;27.40;;;12.80;99.90;;;;;;5016687;28;20059;-64
2023/08/16 03:36:48;;;;;;;44.75;29.38;;;13.00;99.90;;;;;;5033079;28;20052;-64
2023/08/16 03:39:14;;;;;;;48.38;31.52;;;12.90;99.90;;;;;;5017358;28;20049;-63
2023/08/16 03:41:39;;;;;;;47.13;30.10;;;12.80;99.90;;;;;;5017036;28;20196;-63
2023/08/16 03:44:08;;;;;;;38.20;27.60;;;12.80;99.90;;;;;;5033404;28;20299;-63
2023/08/16 03:46:34;;;;;;;39.05;26.73;;;12.70;99.90;;;;;;5016614;28;20044;-64
2023/08/16 03:49:00;;;;;;;42.03;27.10;;;12.80;99.90;;;;;;5033330;28;20348;-65
2023/08/16 03:51:26;;;;;;;42.05;28.08;;;12.80;99.90;;;;;;5033123;28;20173;-65
2023/08/16 03:53:51;;;;;;;32.25;24.13;;;12.80;99.90;;;;;;5033428;28;20377;-65
2023/08/16 03:56:17;;;;;;;35.35;24.77;;;12.70;99.90;;;;;;5000648;28;20228;-65
2023/08/16 03:58:44;;;;;;;37.05;25.67;;;12.70;99.90;;;;;;4983723;28;20052;-64
2023/08/16 04:01:09;;;;;;;39.55;27.67;;;12.60;99.90;;;;;;5004875;28;20053;-64
2023/08/16 04:03:35;;;;;;;39.15;25.35;;;12.70;99.90;;;;;;5015899;28;20158;-64
2023/08/16 04:06:01;;;;;;;42.65;26.92;;;12.60;99.90;;;;;;5015239;28;20236;-65
2023/08/16 04:08:27;;;;;;;38.85;25.63;;;12.50;99.90;;;;;;5016153;28;20052;-64
2023/08/16 04:10:53;;;;;;;40.80;29.42;;;12.60;99.90;;;;;;5032977;28;20064;-64
2023/08/16 04:13:19;;;;;;;65.20;37.47;;;12.60;99.90;;;;;;5016335;28;20407;-64
2023/08/16 04:15:44;;;;;;;42.17;28.38;;;12.40;99.90;;;;;;5015599;28;20044;-64
2023/08/16 04:18:10;;;;;;;42.13;30.65;;;12.50;99.90;;;;;;5016213;28;20197;-63
2023/08/16 04:20:36;;;;;;;42.75;28.17;;;12.70;99.90;;;;;;5033678;28;20036;-64
2023/08/16 04:23:01;;;;;;;44.47;29.23;;;12.60;99.90;;;;;;5031973;28;20048;-64
2023/08/16 04:25:27;;;;;;;42.22;29.23;;;12.60;99.90;;;;;;5032320;28;20040;-64
2023/08/16 04:27:53;;;;;;;44.92;30.73;;;12.60;99.90;;;;;;5015922;28;20452;-63
2023/08/16 04:30:18;;;;;;;45.05;30.17;;;12.80;99.90;;;;;;5032529;28;20121;-64
2023/08/16 04:32:44;;;;;;;47.17;32.13;;;12.70;99.90;;;;;;5016242;28;20201;-64
2023/08/16 04:35:11;;;;;;;45.13;31.20;;;12.80;99.90;;;;;;5032129;28;20056;-64
2023/08/16 04:37:37;;;;;;;49.47;32.58;;;12.70;99.90;;;;;;5031975;28;20056;-64
2023/08/16 04:40:03;;;;;;;53.95;33.00;;;12.90;99.90;;;;;;5033087;28;20120;-64
2023/08/16 04:42:34;;;;;;;53.33;33.00;;;12.70;99.90;;;;;;4999757;28;20403;-65
2023/08/16 04:45:00;;;;;;;50.00;32.00;;;12.80;99.90;;;;;;5032831;28;20065;-65
2023/08/16 04:47:26;;;;;;;59.60;37.05;;;12.90;99.90;;;;;;5032115;28;20091;-64
2023/08/16 04:49:52;;;;;;;49.90;31.38;;;12.80;99.90;;;;;;4998568;28;20041;-64
2023/08/16 04:52:20;;;;;;;45.47;29.73;;;12.70;99.90;;;;;;4999391;28;20225;-64
2023/08/16 04:54:46;;;;;;;47.85;30.55;;;12.90;99.90;;;;;;5031759;28;20041;-63
2023/08/16 04:57:12;;;;;;;41.75;29.48;;;13.00;99.90;;;;;;5016240;28;20040;-65
2023/08/16 04:59:37;;;;;;;45.58;30.55;;;13.00;99.90;;;;;;5031844;28;20051;-67
2023/08/16 05:02:03;;;;;;;43.30;29.83;;;13.10;99.90;;;;;;4982787;28;20542;-64
2023/08/16 05:04:29;;;;;;;40.95;29.13;;;13.20;99.90;;;;;;5031748;28;20040;-64
2023/08/16 05:06:54;;;;;;;37.83;29.05;;;13.00;99.90;;;;;;5031622;28;20040;-63
2023/08/16 05:09:20;;;;;;;47.03;32.88;;;13.00;99.90;;;;;;5015924;28;20045;-63
2023/08/16 05:11:46;;;;;;;46.97;31.23;;;13.10;99.90;;;;;;5032089;28;20061;-63
2023/08/16 05:14:13;;;;;;;38.70;28.65;;;13.10;99.90;;;;;;5031837;28;20049;-63
2023/08/16 05:16:38;;;;;;;42.70;29.38;;;13.00;99.90;;;;;;4998672;28;20240;-64
2023/08/16 05:19:04;;;;;;;45.78;30.50;;;13.30;99.90;;;;;;5033178;28;20135;-63
2023/08/16 05:21:30;;;;;;;44.45;30.67;;;13.50;99.90;;;;;;5032770;28;20037;-64
2023/08/16 05:23:56;;;;;;;41.85;30.17;;;13.30;99.90;;;;;;5016183;28;20102;-64
2023/08/16 05:26:22;;;;;;;46.47;31.90;;;13.70;99.90;;;;;;5016293;28;20064;-65
2023/08/16 05:28:47;;;;;;;43.15;32.97;;;13.70;99.90;;;;;;5016089;28;20128;-65
2023/08/16 05:31:13;;;;;;;44.70;31.65;;;13.80;99.90;;;;;;5033263;28;20044;-66
2023/08/16 05:33:39;;;;;;;42.28;32.30;;;14.10;99.90;;;;;;5031347;28;20045;-65
2023/08/16 05:36:06;;;;;;;39.88;30.70;;;14.30;99.90;;;;;;5032695;28;20908;-64
2023/08/16 05:38:32;;;;;;;45.60;32.63;;;14.20;99.90;;;;;;5016242;28;20315;-65
2023/08/16 05:41:04;;;;;;;39.85;30.58;;;14.50;99.90;;;;;;5034682;28;20123;-65
2023/08/16 05:43:30;;;;;;;36.78;27.98;;;15.00;99.90;;;;;;5032280;28;20264;-62
2023/08/16 05:45:56;;;;;;;28.27;22.55;;;15.40;99.90;;;;;;5031372;28;20049;-66
2023/08/16 05:48:22;;;;;;;26.00;22.75;;;15.50;99.90;;;;;;5016840;28;20043;-65
2023/08/16 05:50:48;;;;;;;21.60;16.63;;;16.10;99.90;;;;;;5015367;28;20215;-65
2023/08/16 05:53:13;;;;;;;17.58;14.82;;;16.40;99.90;;;;;;5032082;28;20287;-63
2023/08/16 05:55:39;;;;;;;17.10;15.20;;;16.80;99.90;;;;;;5031165;28;20410;-63
2023/08/16 05:58:05;;;;;;;14.32;11.75;;;16.90;99.90;;;;;;5014644;28;20072;-64
2023/08/16 06:00:31;;;;;;;13.80;10.68;;;17.10;99.90;;;;;;4992928;28;20052;-63
2023/08/16 06:02:58;;;;;;;13.98;9.95;;;17.20;99.90;;;;;;5030691;28;20076;-64
2023/08/16 06:05:24;;;;;;;9.90;8.93;;;17.50;99.90;;;;;;5030032;28;20228;-64
2023/08/16 06:07:51;;;;;;;11.07;8.43;;;17.70;99.90;;;;;;5030608;28;20079;-65
2023/08/16 06:10:17;;;;;;;11.60;8.85;;;17.80;99.90;;;;;;5014122;28;20041;-64
2023/08/16 06:12:43;;;;;;;8.60;7.78;;;17.50;99.90;;;;;;5030721;28;20072;-65
2023/08/16 06:15:11;;;;;;;7.88;7.05;;;18.00;99.90;;;;;;4981333;28;20335;-65
2023/08/16 06:17:41;;;;;;;8.43;7.57;;;18.10;99.90;;;;;;5029181;28;20056;-64
2023/08/16 06:20:09;;;;;;;11.45;8.57;;;18.00;99.90;;;;;;5031064;28;20037;-64
2023/08/16 06:22:37;;;;;;;11.48;8.57;;;17.90;99.90;;;;;;5030745;28;20054;-63
2023/08/16 06:25:06;;;;;;;10.32;7.30;;;17.90;99.90;;;;;;5014359;28;20323;-64
2023/08/16 06:27:33;;;;;;;8.30;7.07;;;18.20;99.90;;;;;;5013768;28;20041;-64
2023/08/16 06:30:00;;;;;;;11.00;7.45;;;18.00;99.90;;;;;;5030707;28;20081;-65
2023/08/16 06:32:26;;;;;;;11.43;6.82;;;17.80;99.90;;;;;;4997329;28;20044;-64
2023/08/16 06:34:52;;;;;;;7.63;6.63;;;18.10;99.90;;;;;;5014469;28;20423;-64
2023/08/16 06:37:18;;;;;;;7.70;5.60;;;18.40;99.90;;;;;;5030481;28;20128;-64
2023/08/16 06:39:44;;;;;;;6.07;5.57;;;18.50;99.90;;;;;;4998400;28;20457;-64
2023/08/16 06:42:10;;;;;;;7.10;5.13;;;18.60;99.90;;;;;;5013969;28;20365;-64
2023/08/16 06:44:36;;;;;;;6.85;5.40;;;18.90;99.90;;;;;;5030718;28;20483;-64
2023/08/16 06:47:02;;;;;;;8.82;5.70;;;19.20;99.90;;;;;;5016591;28;20457;-64
2023/08/16 06:49:27;;;;;;;6.22;4.70;;;19.50;99.90;;;;;;5034897;28;20052;-64
2023/08/16 06:51:53;;;;;;;4.97;4.18;;;19.50;99.90;;;;;;5017816;28;20049;-65
2023/08/16 06:54:19;;;;;;;6.07;4.15;;;19.10;99.90;;;;;;5017877;28;20044;-64
2023/08/16 06:56:45;;;;;;;6.50;4.60;;;19.20;99.90;;;;;;5033990;28;20076;-64
2023/08/16 06:59:10;;;;;;;8.27;3.30;;;19.30;99.90;;;;;;5000749;28;20049;-64
2023/08/16 07:01:36;;;;;;;6.63;2.35;;;19.30;99.90;;;;;;5033823;28;20045;-65
2023/08/16 07:04:02;;;;;;;6.43;3.00;;;19.10;99.90;;;;;;5034477;28;20088;-65
2023/08/16 07:06:31;;;;;;;4.80;2.88;;;19.20;99.90;;;;;;5033769;28;20088;-64
2023/08/16 07:08:58;;;;;;;9.55;3.63;;;19.30;99.90;;;;;;5016741;28;20045;-64
2023/08/16 07:11:25;;;;;;;5.25;2.25;;;19.40;99.90;;;;;;5033395;28;20086;-65
2023/08/16 07:13:51;;;;;;;7.93;2.20;;;19.70;99.90;;;;;;5012554;28;20149;-65
2023/08/16 07:16:17;;;;;;;5.95;2.35;;;20.00;99.90;;;;;;5016730;28;20128;-63
2023/08/16 07:18:43;;;;;;;5.22;2.10;;;20.10;99.90;;;;;;5033770;28;20048;-64
2023/08/16 07:21:11;;;;;;;5.82;2.17;;;20.30;99.90;;;;;;5033853;28;20399;-62
2023/08/16 07:23:36;;;;;;;6.97;2.25;;;20.40;99.90;;;;;;5033453;28;20791;-63
2023/08/16 07:26:03;;;;;;;4.22;2.28;;;20.50;99.90;;;;;;5033266;28;20090;-62
2023/08/16 07:28:29;;;;;;;4.60;2.10;;;21.00;99.90;;;;;;5032908;28;20045;-63
2023/08/16 07:30:58;;;;;;;5.25;1.48;;;21.40;99.90;;;;;;5015847;28;20047;-63
2023/08/16 07:33:24;;;;;;;2.95;1.20;;;21.70;99.90;;;;;;5042181;28;20087;-63
2023/08/16 07:35:50;;;;;;;4.25;1.35;;;21.70;99.90;;;;;;5034006;28;20110;-63
2023/08/16 07:38:16;;;;;;;6.53;1.88;;;21.70;99.90;;;;;;5048358;28;20510;-62
2023/08/16 07:40:48;;;;;;;7.07;2.38;;;21.70;99.90;;;;;;5049089;28;20037;-65
2023/08/16 07:43:15;;;;;;;5.90;2.00;;;21.40;99.90;;;;;;5050007;28;20127;-63
2023/08/16 07:45:41;;;;;;;5.53;1.58;;;21.60;99.90;;;;;;5051802;28;20406;-66
2023/08/16 07:48:07;;;;;;;3.40;0.90;;;21.60;99.90;;;;;;5050087;28;20075;-62
2023/08/16 07:50:32;;;;;;;4.65;0.85;;;21.30;99.90;;;;;;5032867;28;20037;-63
2023/08/16 07:52:58;;;;;;;4.40;1.25;;;21.50;99.90;;;;;;5049728;28;20051;-64
2023/08/16 07:55:30;;;;;;;7.72;1.23;;;21.40;99.90;;;;;;5049553;28;20041;-63
2023/08/16 07:57:55;;;;;;;7.23;1.53;;;21.00;99.90;;;;;;5032397;28;20033;-65
2023/08/16 08:04:03;;;;;;;4.75;1.10;;;20.70;99.90;;;;;;5050341;28;20052;-63
2023/08/16 08:06:29;;;;;;;7.32;1.83;;;20.30;99.90;;;;;;5049373;28;20403;-65
2023/08/16 08:08:54;;;;;;;4.38;1.30;;;20.40;99.90;;;;;;5032405;28;20045;-63
2023/08/16 08:11:20;;;;;;;4.75;1.17;;;20.50;99.90;;;;;;5032011;28;20430;-65
2023/08/16 08:13:46;;;;;;;8.85;1.95;;;20.90;99.90;;;;;;5032497;28;20130;-64
2023/08/16 08:16:11;;;;;;;3.28;1.00;;;21.30;99.90;;;;;;5049006;28;20041;-63
2023/08/16 08:18:38;;;;;;;3.90;0.75;;;21.60;99.90;;;;;;5048565;28;20491;-63
2023/08/16 08:21:04;;;;;;;2.70;0.52;;;21.80;99.90;;;;;;5032352;28;20402;-63
2023/08/16 08:23:29;;;;;;;6.68;0.52;;;22.20;99.90;;;;;;5032031;28;20041;-64
2023/08/16 08:25:55;;;;;;;2.58;0.70;;;22.70;99.90;;;;;;5032287;28;20051;-63
2023/08/16 08:28:22;;;;;;;2.95;0.43;;;23.20;99.90;;;;;;5049062;28;20053;-64
2023/08/16 08:30:48;;;;;;;3.17;0.60;;;23.30;99.90;;;;;;5048644;28;20098;-64
2023/08/16 08:33:14;;;;;;;3.80;0.90;;;23.20;99.90;;;;;;5032413;28;20064;-65
2023/08/16 08:35:40;;;;;;;4.72;0.57;;;23.20;99.90;;;;;;5048776;28;20036;-64
2023/08/16 08:38:05;;;;;;;4.45;0.60;;;22.90;99.90;;;;;;5032077;28;20041;-66
2023/08/16 08:40:31;;;;;;;5.43;0.70;;;22.70;99.90;;;;;;5048711;28;20119;-63
2023/08/16 08:43:03;;;;;;;4.53;0.70;;;22.50;99.90;;;;;;5048838;28;20045;-63
2023/08/16 08:45:30;;;;;;;4.40;0.60;;;22.40;98.40;;;;;;5032250;28;20041;-62
2023/08/16 08:47:59;;;;;;;4.05;0.55;;;22.00;99.90;;;;;;5031758;28;20483;-64
2023/08/16 08:50:27;;;;;;;7.82;0.70;;;22.00;99.90;;;;;;5048031;28;20052;-64
2023/08/16 08:52:56;;;;;;;3.33;0.60;;;21.80;99.90;;;;;;5031843;28;20128;-63
2023/08/16 08:55:25;;;;;;;4.65;0.65;;;21.70;99.90;;;;;;5048843;28;20049;-63
2023/08/16 08:58:09;;;;;;;5.43;0.70;;;21.60;99.90;;;;;;5048412;28;20414;-63
2023/08/16 09:01:14;;;;;;;4.00;0.50;;;21.40;99.90;;;;;;5047798;28;20041;-63
2023/08/16 09:03:43;;;;;;;7.10;0.52;;;21.50;99.90;;;;;;5048264;28;20130;-64
2023/08/16 09:06:09;;;;;;;4.28;0.45;;;21.50;99.90;;;;;;5048526;28;20344;-64
2023/08/16 09:08:40;;;;;;;4.45;0.50;;;21.60;99.90;;;;;;5031941;28;20048;-62
2023/08/16 09:11:06;;;;;;;4.25;0.40;;;21.60;99.90;;;;;;5031694;28;20127;-63
2023/08/16 09:13:32;;;;;;;3.13;0.50;;;21.70;99.90;;;;;;5047585;28;20053;-63
2023/08/16 09:16:00;;;;;;;4.45;0.43;;;21.70;99.90;;;;;;5048542;28;20454;-65
2023/08/16 09:18:27;;;;;;;2.50;0.30;;;21.80;99.90;;;;;;5031955;28;20041;-64
2023/08/16 09:20:52;;;;;;;3.90;0.60;;;22.00;97.10;;;;;;5018047;28;20112;-63
2023/08/16 09:23:18;;;;;;;2.92;0.30;;;22.10;92.20;;;;;;5048652;28;20128;-64
2023/08/16 09:25:45;;;;;;;3.35;0.30;;;22.20;93.50;;;;;;5047536;28;20037;-65
2023/08/16 09:28:12;;;;;;;4.53;0.40;;;22.40;88.20;;;;;;5047526;28;20041;-62
2023/08/16 09:30:38;;;;;;;4.65;0.50;;;22.60;83.20;;;;;;5030844;28;20072;-64
2023/08/16 09:33:05;;;;;;;5.53;0.50;;;22.70;78.60;;;;;;5031003;28;20037;-66
2023/08/16 09:35:33;;;;;;;1.98;0.20;;;23.10;70.30;;;;;;5047190;28;20473;-62
2023/08/16 09:38:00;;;;;;;3.72;0.30;;;23.20;58.10;;;;;;5031437;28;20350;-63
2023/08/16 09:40:26;;;;;;;2.65;0.30;;;23.50;46.80;;;;;;5047630;28;20041;-63
2023/08/16 09:42:58;;;;;;;3.60;0.28;;;23.40;37.90;;;;;;5047274;28;20036;-63
2023/08/16 09:45:43;;;;;;;3.97;0.40;;;23.30;30.60;;;;;;5048269;28;20678;-64
2023/08/16 09:48:09;;;;;;;2.72;0.30;;;23.30;30.00;;;;;;5063389;28;20545;-64
2023/08/16 09:50:35;;;;;;;3.28;0.30;;;23.30;42.10;;;;;;5014129;28;20041;-62
2023/08/16 09:53:03;;;;;;;3.53;0.22;;;23.40;42.00;;;;;;5030994;28;20110;-65
2023/08/16 09:55:35;;;;;;;2.63;0.30;;;23.10;33.70;;;;;;5046238;28;20052;-63
2023/08/16 09:58:01;;;;;;;3.58;0.32;;;23.10;25.50;;;;;;5030871;28;20048;-64
2023/08/16 10:00:29;;;;;;;2.75;0.40;;;23.20;32.70;;;;;;5047048;28;20499;-63
2023/08/16 10:02:56;;;;;;;2.20;0.30;;;23.70;32.50;;;;;;5046754;28;20052;-64
2023/08/16 10:05:24;;;;;;;2.92;0.25;;;24.30;21.70;;;;;;5047120;28;20056;-65
2023/08/16 10:07:50;;;;;;;2.92;0.20;;;24.70;13.60;;;;;;5030683;28;20110;-65
2023/08/16 10:10:17;;;;;;;1.45;0.20;;;25.00;5.00;;;;;;5046457;28;20095;-63
2023/08/16 10:12:46;;;;;;;2.05;0.30;;;25.60;1.00;;;;;;5048075;28;20063;-63
2023/08/16 10:15:17;;;;;;;2.67;0.20;;;25.50;1.00;;;;;;5047098;28;20049;-64
2023/08/16 10:17:43;;;;;;;2.15;0.20;;;25.90;1.00;;;;;;5046846;28;20114;-62
2023/08/16 10:20:21;;;;;;;5.07;0.30;;;25.80;1.00;;;;;;5047013;28;20045;-64
2023/08/16 10:22:51;;;;;;;3.47;0.20;;;25.60;1.00;;;;;;5034230;28;20110;-64
2023/08/16 10:25:23;;;;;;;1.73;0.20;;;25.80;1.00;;;;;;5034557;28;20057;-66
2023/08/16 10:27:51;;;;;;;3.05;0.20;;;25.80;1.00;;;;;;5035027;28;20036;-64
2023/08/16 10:30:22;;;;;;;1.75;0.40;;;26.00;1.00;;;;;;5034128;28;20045;-66
2023/08/16 10:33:21;;;;;;;4.40;0.30;;;25.90;1.00;;;;;;5034108;28;20316;-65
2023/08/16 10:35:50;;;;;;;2.15;0.25;;;25.60;1.00;;;;;;5034476;28;20545;-65
2023/08/16 10:38:18;;;;;;;3.67;0.30;;;25.80;1.00;;;;;;5033997;28;20049;-64
2023/08/16 10:40:57;;;;;;;2.08;0.30;;;25.90;1.00;;;;;;5033613;28;20288;-65
2023/08/16 10:43:54;;;;;;;2.15;0.20;;;26.00;1.00;;;;;;5033457;28;20049;-65
2023/08/16 10:46:27;;;;;;;3.45;0.40;;;26.30;1.00;;;;;;5033653;28;20665;-64
2023/08/16 10:49:00;;;;;;;2.72;0.30;;;26.60;1.00;;;;;;5016671;28;20083;-64
2023/08/16 10:51:26;;;;;;;2.67;0.20;;;26.50;1.00;;;;;;5034315;28;20051;-64
2023/08/16 10:53:56;;;;;;;1.52;0.20;;;26.40;1.00;;;;;;5017504;28;20322;-64
2023/08/16 10:56:21;;;;;;;5.00;0.40;;;26.50;1.00;;;;;;5033978;28;20154;-64
2023/08/16 10:58:52;;;;;;;5.85;0.30;;;26.40;1.00;;;;;;5016873;28;20139;-64
2023/08/16 11:01:19;;;;;;;2.47;0.28;;;26.80;1.00;;;;;;5033843;28;20392;-64
2023/08/16 11:03:46;;;;;;;3.83;0.35;;;26.80;1.00;;;;;;5017358;28;20067;-66
2023/08/16 11:06:14;;;;;;;1.75;0.20;;;26.60;1.00;;;;;;5033334;28;20040;-63
2023/08/16 11:08:42;;;;;;;2.95;0.20;;;26.80;1.00;;;;;;5016598;28;20430;-64
2023/08/16 11:11:08;;;;;;;1.30;0.20;;;27.00;1.00;;;;;;5016898;28;20059;-65
2023/08/16 11:13:34;;;;;;;3.40;0.30;;;27.00;1.00;;;;;;5000256;28;20249;-66
2023/08/16 11:15:59;;;;;;;2.65;0.73;;;26.50;1.00;;;;;;5033292;28;20167;-64
2023/08/16 11:18:34;;;;;;;4.63;0.73;;;26.60;1.00;;;;;;5033412;28;20106;-65
2023/08/16 11:21:01;;;;;;;2.42;0.30;;;26.60;1.00;;;;;;5016315;28;20084;-64
2023/08/16 11:23:37;;;;;;;4.43;1.17;;;26.60;1.00;;;;;;5032646;28;20041;-65
2023/08/16 11:26:04;;;;;;;11.52;2.40;;;26.60;1.00;;;;;;5032687;28;20584;-65
2023/08/16 11:28:33;;;;;;;2.88;0.30;;;26.50;1.00;;;;;;5016730;28;20056;-65
2023/08/16 11:31:06;;;;;;;2.75;0.17;;;26.50;1.00;;;;;;5016549;28;20178;-66
2023/08/16 11:33:36;;;;;;;6.43;0.90;;;26.30;1.00;;;;;;5032638;28;20037;-66
2023/08/16 11:36:06;;;;;;;1.17;0.20;;;26.40;1.00;;;;;;5032576;28;20265;-65
2023/08/16 11:38:33;;;;;;;7.43;1.02;;;26.50;1.00;;;;;;5032981;28;20051;-66
2023/08/16 11:40:59;;;;;;;4.18;0.65;;;26.60;1.00;;;;;;5033129;28;20053;-66
2023/08/16 11:43:29;;;;;;;13.85;3.10;;;26.20;1.00;;;;;;5016218;28;20044;-66
2023/08/16 11:45:56;;;;;;;6.53;1.60;;;26.50;1.00;;;;;;5016277;28;20679;-66
2023/08/16 11:48:24;;;;;;;9.00;2.90;;;26.30;1.00;;;;;;5032230;28;20055;-66
2023/08/16 11:50:50;;;;;;;11.75;2.38;;;26.40;1.00;;;;;;5016152;28;20605;-66
2023/08/16 11:53:17;;;;;;;13.70;2.80;;;26.60;1.00;;;;;;4999649;28;20527;-66
2023/08/16 11:55:44;;;;;;;23.92;8.88;;;26.60;1.00;;;;;;5032259;28;20361;-66
2023/08/16 11:58:10;;;;;;;4.40;0.50;;;26.60;1.00;;;;;;5015468;28;20671;-66
2023/08/16 12:00:38;;;;;;;5.35;1.00;;;26.70;1.00;;;;;;5015643;28;20041;-66
2023/08/16 12:03:06;;;;;;;5.25;1.10;;;26.70;1.00;;;;;;5032590;28;20044;-66
2023/08/16 12:05:37;;;;;;;15.35;2.53;;;26.60;1.00;;;;;;5032314;28;20049;-67
2023/08/16 12:08:05;;;;;;;12.13;3.25;;;26.10;1.00;;;;;;5032289;28;20044;-66
2023/08/16 12:10:33;;;;;;;28.42;9.00;;;26.20;1.00;;;;;;5015924;28;20049;-66
2023/08/16 12:12:59;;;;;;;2.60;0.20;;;26.30;1.00;;;;;;5031862;28;20086;-66
2023/08/16 12:15:27;;;;;;;2.08;0.20;;;26.60;1.00;;;;;;5033003;28;20391;-66
2023/08/16 12:17:57;;;;;;;4.18;0.47;;;26.70;1.00;;;;;;5032889;28;20481;-67
2023/08/16 12:20:25;;;;;;;3.35;0.22;;;26.50;1.00;;;;;;5032343;28;20052;-67
2023/08/16 12:22:52;;;;;;;3.38;0.20;;;26.50;1.00;;;;;;5015126;28;20489;-66
2023/08/16 12:25:18;;;;;;;4.00;0.28;;;26.50;1.00;;;;;;5032203;28;20057;-65
2023/08/16 12:27:44;;;;;;;3.22;0.40;;;26.60;1.00;;;;;;5032574;28;20056;-66
2023/08/16 12:30:10;;;;;;;6.47;0.30;;;26.50;1.00;;;;;;5032642;28;20495;-66
2023/08/16 12:32:36;;;;;;;14.43;5.35;;;26.50;1.00;;;;;;5032163;28;20080;-66
2023/08/16 12:35:02;;;;;;;7.45;1.73;;;26.70;1.00;;;;;;5032334;28;20676;-65
2023/08/16 12:37:28;;;;;;;4.47;0.50;;;26.70;1.00;;;;;;5031779;28;20056;-66
2023/08/16 12:39:54;;;;;;;4.10;0.43;;;26.40;1.00;;;;;;5032045;28;20430;-65
2023/08/16 12:42:19;;;;;;;3.78;0.30;;;26.70;1.00;;;;;;5031378;28;20048;-65
2023/08/16 12:44:45;;;;;;;1.73;0.20;;;26.90;1.00;;;;;;5030344;28;20131;-65
2023/08/16 12:47:11;;;;;;;3.03;0.35;;;26.90;1.00;;;;;;5032137;28;20053;-67
2023/08/16 12:49:36;;;;;;;2.88;0.35;;;26.90;1.00;;;;;;5031906;28;20061;-65
2023/08/16 12:52:02;;;;;;;2.53;0.28;;;27.20;1.00;;;;;;5031914;28;20292;-65